Pisek, North Dakota
Current Conditions -  °F | °C
As of 4:55 AM on Sunday 23 Nov 2014 (Local Time) from KGAF Reporting Station
Clear Clear  
Wind Chill: 24°   Ceiling: Unl
Heat Index: 32°   Visibility: 7mi
Dew Point: 32°   Wind: 9mph
Humidity: 100%   Direction: 200°SSW
Pressure: 29.35"   Gusts: NA
Location:  48.31°N, 97.71°W
Report Text: KGAF 231055Z AUTO 20008KT 7SM CLR 00/00 A2935 RMK AO2
Loading
Personal Weather Stations






























Interactive Weather Map New forecast layout! Learn more

10-Day Weather Forecast

Advertisements
Track Severe Weather on mobile